Latest Coastal Weather Observations for Friendly Beaches

IDT60701

Issued at 3:35 pm EST Thursday 17 April 2014 (issued every 10 minutes, with the page automatically refreshed every 10 minutes)

About coastal observations | Map of coastal stations | Coastal observations for TAS | Marine services | Other Formats
Station Details ID: 092114 Name: FRIENDLY BEACHES Lat: -42.00 Lon: 148.28 Height: 55.0 m
Data from the previous 72 hours. | See also: Recent months at Friendly Beaches
Date/Time
EST
Temp

°C
Wind Pressure Rain
since 9am
mm
Weather Cloud Vis
km
Sea
Height
m
Swell
Dir
 
Speed
knots
Gust
knots
hPa Trend Height
m
Period
s
Dir
17/03:30pm 18.6 NNE 10 15 1018.2 - 0.0 - - - - - - -
17/03:00pm 19.0 NNE 12 17 1018.5 - 0.0 - - - - - - -
17/02:30pm 19.5 NNE 11 17 1018.6 - 0.0 - - - - - - -
17/02:00pm 19.9 NNE 10 15 1018.9 - 0.0 - - - - - - -
17/01:30pm 20.3 NNE 9 13 1019.3 - 0.0 - - - - - - -
17/01:00pm 19.7 NNE 9 14 1019.7 - 0.0 - - - - - - -
17/12:30pm 18.4 NNE 7 12 1020.2 - 0.0 - - - - - - -
17/12:00pm 18.2 NE 7 12 1020.4 - 0.0 - - - - - - -
17/11:30am 18.1 NE 6 9 1020.8 - 0.0 - - - - - - -
17/11:00am 18.8 ENE 5 8 1020.9 - 0.0 - - - - - - -
17/10:30am 17.5 ENE 2 4 1021.2 - 0.0 - - - - - - -
17/10:00am 16.6 E 2 4 1021.0 - 0.0 - - - - - - -
17/09:30am 14.0 WNW 3 5 1021.3 - 0.0 - - - - - - -
17/09:00am 12.8 WNW 5 7 1021.2 - 0.0 - - - - - - -
17/08:30am 12.1 WNW 6 7 1021.3 - 0.0 - - - - - - -
17/08:00am 11.2 WNW 6 7 1021.3 - 0.0 - - - - - - -
17/07:30am 10.3 WNW 5 6 1021.2 - 0.0 - - - - - - -
17/07:00am 10.8 W 3 5 1020.9 - 0.0 - - - - - - -
17/06:30am 10.0 WNW 4 6 1020.7 - 0.0 - - - - - - -
17/06:00am 10.0 WNW 5 5 1020.4 - 0.0 - - - - - - -
17/05:30am 11.5 CALM 0 0 1020.6 - 0.0 - - - - - - -
17/05:00am 10.8 N 1 2 1020.4 - 0.0 - - - - - - -
17/04:30am 10.2 NW 2 2 1020.5 - 0.0 - - - - - - -
17/04:00am 10.3 NW 3 4 1020.4 - 0.0 - - - - - - -
17/03:30am 9.6 W 5 6 1020.4 - 0.0 - - - - - - -
17/03:00am 9.7 NNW 2 3 1020.1 - 0.0 - - - - - - -
17/02:30am 9.6 WNW 5 5 1020.3 - 0.0 - - - - - - -
17/02:00am 10.6 WNW 3 4 1020.4 - 0.0 - - - - - - -
17/01:30am 12.7 N 4 5 1020.6 - 0.0 - - - - - - -
17/01:00am 12.8 N 4 5 1020.8 - 0.0 - - - - - - -
17/12:30am 12.4 NNW 4 5 1021.1 - 0.0 - - - - - - -
17/12:00am 12.4 NNW 3 4 1021.0 - 0.0 - - - - - - -
 
Date/Time
EST
Temp

°C
Wind Pressure Rain
since 9am
mm
Weather Cloud Vis
km
Sea
Height
m
Swell
Dir
 
Speed
knots
Gust
knots
hPa Trend Height
m
Period
s
Dir
16/11:30pm 12.2 NNE 3 4 1021.1 - 0.0 - - - - - - -
16/11:00pm 12.9 CALM 0 1 1021.2 - 0.0 - - - - - - -
16/10:30pm 13.5 NNW 3 5 1021.3 - 0.0 - - - - - - -
16/10:00pm 12.8 NW 4 5 1021.3 - 0.0 - - - - - - -
16/09:30pm 13.4 N 4 7 1021.4 - 0.0 - - - - - - -
16/09:00pm 13.6 N 5 8 1021.3 - 0.0 - - - - - - -
16/08:30pm 13.6 N 6 8 1021.3 - 0.0 - - - - - - -
16/08:00pm 14.1 N 3 5 1021.1 - 0.0 - - - - - - -
16/07:30pm 14.8 N 4 7 1021.2 - 0.0 - - - - - - -
16/07:00pm 14.7 NE 5 7 1021.0 - 0.0 - - - - - - -
16/06:30pm 14.1 NW 2 2 1021.1 - 0.0 - - - - - - -
16/06:00pm 14.4 NE 3 6 1020.9 - 0.0 - - - - - - -
16/05:30pm 14.7 ENE 4 7 1020.8 - 0.0 - - - - - - -
16/05:00pm 15.7 ENE 5 8 1020.6 - 0.0 - - - - - - -
16/04:30pm 16.3 ENE 5 7 1020.8 - 0.0 - - - - - - -
16/04:00pm 16.1 E 6 9 1020.9 - 0.0 - - - - - - -
16/03:30pm 16.7 E 5 8 1021.0 - 0.0 - - - - - - -
16/03:00pm 16.9 E 5 8 1020.9 - 0.0 - - - - - - -
16/02:30pm 18.2 E 5 7 1021.1 - 0.0 - - - - - - -
16/02:00pm 18.5 E 5 7 1021.1 - 0.0 - - - - - - -
16/01:30pm 18.7 ESE 7 9 1021.2 - 0.0 - - - - - - -
16/01:00pm 18.2 ESE 5 7 1021.5 - 0.0 - - - - - - -
16/12:30pm 17.8 SE 4 6 1021.9 - 0.0 - - - - - - -
16/12:00pm 17.3 SE 4 6 1022.2 - 0.0 - - - - - - -
16/11:30am 17.5 ESE 3 5 1022.5 - 0.0 - - - - - - -
16/11:00am 17.4 SSE 3 5 1022.5 - 0.0 - - - - - - -
16/10:30am 15.7 WSW 3 5 1022.9 - 0.0 - - - - - - -
16/10:00am 15.5 W 3 6 1023.1 - 0.0 - - - - - - -
16/09:30am 14.8 W 5 7 1023.4 - 0.0 - - - - - - -
16/09:00am 13.4 W 4 6 1023.6 - 1.0 - - - - - - -
16/08:30am 12.2 W 4 5 1023.7 - 1.0 - - - - - - -
16/08:00am 11.6 W 3 5 1023.8 - 1.0 - - - - - - -
16/07:30am 11.1 WNW 6 8 1023.6 - 1.0 - - - - - - -
16/07:00am 10.8 W 5 7 1023.4 - 1.0 - - - - - - -
16/06:30am 10.8 W 4 6 1023.2 - 1.0 - - - - - - -
16/06:00am 10.7 WNW 5 7 1022.9 - 1.0 - - - - - - -
16/05:30am 10.9 WNW 6 8 1023.1 - 1.0 - - - - - - -
16/05:00am 10.6 WNW 5 7 1023.1 - 1.0 - - - - - - -
16/04:30am 10.9 WNW 4 5 1023.2 - 1.0 - - - - - - -
16/04:00am 10.9 W 4 5 1023.2 - 1.0 - - - - - - -
16/03:30am 10.8 WNW 5 6 1023.1 - 1.0 - - - - - - -
16/03:00am 10.7 WNW 5 7 1023.4 - 1.0 Recent precip. - - - - - -
16/02:30am 10.8 WNW 6 9 1023.8 - 1.0 - - - - - - -
16/02:00am 11.1 W 6 8 1024.3 - 0.8 - - - - - - -
16/01:30am 11.2 W 4 6 1024.7 - 0.6 - - - - - - -
16/01:00am 11.3 W 5 7 1024.7 - 0.4 - - - - - - -
16/12:30am 11.5 W 5 6 1024.8 - 0.2 - - - - - - -
16/12:00am 11.4 W 6 8 1024.8 - 0.0 - - - - - - -
 
Date/Time
EST
Temp

°C
Wind Pressure Rain
since 9am
mm
Weather Cloud Vis
km
Sea
Height
m
Swell
Dir
 
Speed
knots
Gust
knots
hPa Trend Height
m
Period
s
Dir
15/11:30pm 11.1 W 6 8 1025.0 - 0.0 - - - - - - -
15/11:00pm 11.2 WNW 5 7 1025.1 - 0.0 - - - - - - -
15/10:30pm 11.1 WNW 5 7 1025.3 - 0.0 - - - - - - -
15/10:00pm 11.1 WNW 5 7 1025.4 - 0.0 - - - - - - -
15/09:30pm 11.2 WNW 5 7 1025.5 - 0.0 - - - - - - -
15/09:00pm 11.4 W 5 7 1025.6 - 0.0 - - - - - - -
15/08:30pm 11.8 W 3 6 1025.6 - 0.0 - - - - - - -
15/08:00pm 11.9 WNW 4 5 1025.5 - 0.0 - - - - - - -
15/07:30pm 12.1 WNW 3 4 1025.5 - 0.0 - - - - - - -
15/07:00pm 11.9 W 4 6 1025.3 - 0.0 - - - - - - -
15/06:30pm 12.0 W 4 5 1025.1 - 0.0 - - - - - - -
15/06:00pm 12.1 SW 4 7 1024.9 - 0.0 - - - - - - -
15/05:30pm 12.5 SW 4 6 1024.8 - 0.0 - - - - - - -
15/05:00pm 14.3 SSW 5 10 1024.8 - 0.0 - - - - - - -
15/04:30pm 13.7 SSW 5 8 1024.9 - 0.0 - - - - - - -
15/04:00pm 13.9 S 7 10 1024.9 - 0.0 - - - - - - -
15/03:30pm 14.4 S 6 10 1025.0 - 0.0 - - - - - - -
15/03:00pm 14.7 S 7 11 1025.0 - 0.0 - - - - - - -
15/02:30pm 14.9 S 6 13 1024.9 - 0.0 - - - - - - -
15/02:00pm 15.7 SSW 7 11 1024.7 - 0.0 - - - - - - -
15/01:30pm 15.4 SSW 6 11 1024.6 - 0.0 - - - - - - -
15/01:00pm 14.9 S 7 11 1024.8 - 0.0 - - - - - - -
15/12:30pm 15.1 SSW 7 13 1025.0 - 0.0 - - - - - - -
15/12:00pm 15.6 SSW 6 9 1025.3 - 0.0 - - - - - - -
15/11:30am 14.6 SSW 9 13 1025.6 - 0.0 - - - - - - -
15/11:00am 14.8 SSW 6 11 1025.7 - 0.0 - - - - - - -
15/10:30am 14.2 SW 7 11 1025.7 - 0.0 - - - - - - -
15/10:00am 14.2 SW 5 8 1025.7 - 0.0 - - - - - - -
15/09:30am 13.5 WSW 4 8 1025.7 - 0.0 - - - - - - -
15/09:00am 12.9 WSW 4 7 1025.7 - 0.2 - - - - - - -
15/08:30am 12.5 WSW 4 7 1025.7 - 0.2 - - - - - - -
15/08:00am 12.1 W 5 7 1025.6 - 0.2 - - - - - - -
15/07:30am 11.7 W 4 8 1025.4 - 0.2 - - - - - - -
15/07:00am 11.5 SW 3 8 1025.0 - 0.2 - - - - - - -
15/06:30am 11.2 SSW 5 8 1024.8 - 0.2 - - - - - - -
15/06:00am 11.4 S 7 11 1024.7 - 0.2 - - - - - - -
15/05:30am 11.4 SSW 5 8 1024.7 - 0.2 - - - - - - -
15/05:00am 11.3 SW 6 10 1024.6 - 0.2 - - - - - - -
15/04:30am 11.6 SW 6 12 1024.7 - 0.2 - - - - - - -
15/04:00am 11.8 S 6 9 1024.6 - 0.0 - - - - - - -
15/03:30am 12.2 SSW 5 10 1024.4 - 0.0 - - - - - - -
15/03:00am 12.4 WSW 5 9 1024.4 - 0.0 - - - - - - -
15/02:30am 12.6 SW 5 8 1024.4 - 0.0 - - - - - - -
15/02:00am 12.9 WSW 5 7 1024.3 - 0.0 - - - - - - -
15/01:30am 12.8 WSW 4 6 1024.4 - 0.0 - - - - - - -
15/01:00am 12.7 WSW 3 5 1024.4 - 0.0 - - - - - - -
15/12:30am 12.8 WSW 4 7 1024.5 - 0.0 - - - - - - -
15/12:00am 13.1 S 5 8 1024.6 - 0.0 - - - - - - -
 
Date/Time
EST
Temp

°C
Wind Pressure Rain
since 9am
mm
Weather Cloud Vis
km
Sea
Height
m
Swell
Dir
 
Speed
knots
Gust
knots
hPa Trend Height
m
Period
s
Dir
14/11:30pm 13.4 S 4 7 1024.5 - 0.0 - - - - - - -
14/11:00pm 13.5 SSW 4 8 1024.5 - 0.0 - - - - - - -
14/10:30pm 13.8 S 7 11 1024.5 - 0.0 - - - - - - -
14/10:00pm 13.9 S 8 11 1024.4 - 0.0 - - - - - - -
14/09:30pm 14.1 SSE 10 15 1024.3 - 0.0 - - - - - - -
14/09:00pm 14.1 S 6 8 1024.2 - 0.0 - - - - - - -
14/08:30pm 14.3 SSE 8 11 1024.1 - 0.0 - - - - - - -
14/08:00pm 13.8 S 6 11 1024.0 - 0.0 - - - - - - -
14/07:30pm 14.3 SSE 9 12 1023.9 - 0.0 - - - - - - -
14/07:00pm 14.3 SSE 9 12 1023.9 - 0.0 - - - - - - -
14/06:30pm 14.3 SSE 10 14 1023.5 - 0.0 - - - - - - -
14/06:00pm 14.9 SSE 10 16 1023.2 - 0.0 - - - - - - -
14/05:30pm 14.9 SSE 10 15 1022.9 - 0.0 - - - - - - -
14/05:00pm 15.3 SSE 15 20 1022.4 - 0.0 - - - - - - -
14/04:30pm 15.7 SSE 13 19 1022.4 - 0.0 - - - - - - -
14/04:00pm 16.1 SSE 12 17 1022.0 - 0.0 - - - - - - -

Other Formats:

Comma delimited format used in spreadsheet applications
http://www.bom.gov.au/fwo/IDT60701/IDT60701.94987.axf

JavaScript Object Notation format (JSON) in row-major order
http://www.bom.gov.au/fwo/IDT60701/IDT60701.94987.json